sensor_id;sensor_type;location;lat;lon;timestamp;P1;durP1;ratioP1;P2;durP2;ratioP2
9447;SDS011;4762;48.128;11.376;2023-02-28T00:01:22;2.07;;;1.50;;
9447;SDS011;4762;48.128;11.376;2023-02-28T00:03:24;3.73;;;1.70;;
9447;SDS011;4762;48.128;11.376;2023-02-28T00:05:26;1.30;;;0.80;;
9447;SDS011;4762;48.128;11.376;2023-02-28T00:07:29;1.40;;;1.10;;
9447;SDS011;4762;48.128;11.376;2023-02-28T00:09:31;2.53;;;1.57;;
9447;SDS011;4762;48.128;11.376;2023-02-28T00:11:34;2.07;;;1.17;;
9447;SDS011;4762;48.128;11.376;2023-02-28T00:13:37;3.63;;;1.50;;
9447;SDS011;4762;48.128;11.376;2023-02-28T00:15:39;2.40;;;1.60;;
9447;SDS011;4762;48.128;11.376;2023-02-28T00:17:41;1.37;;;0.80;;
9447;SDS011;4762;48.128;11.376;2023-02-28T00:19:44;1.60;;;1.27;;
9447;SDS011;4762;48.128;11.376;2023-02-28T00:21:46;2.10;;;1.43;;
9447;SDS011;4762;48.128;11.376;2023-02-28T00:23:48;3.50;;;1.53;;
9447;SDS011;4762;48.128;11.376;2023-02-28T00:25:51;1.77;;;1.20;;
9447;SDS011;4762;48.128;11.376;2023-02-28T00:27:53;3.07;;;1.93;;
9447;SDS011;4762;48.128;11.376;2023-02-28T00:29:55;1.97;;;1.10;;
9447;SDS011;4762;48.128;11.376;2023-02-28T00:31:58;5.13;;;1.80;;
9447;SDS011;4762;48.128;11.376;2023-02-28T00:34:00;2.53;;;1.57;;
9447;SDS011;4762;48.128;11.376;2023-02-28T00:36:03;1.70;;;1.10;;
9447;SDS011;4762;48.128;11.376;2023-02-28T00:38:05;1.30;;;0.90;;
9447;SDS011;4762;48.128;11.376;2023-02-28T00:40:08;3.33;;;2.33;;
9447;SDS011;4762;48.128;11.376;2023-02-28T00:42:11;2.70;;;1.27;;
9447;SDS011;4762;48.128;11.376;2023-02-28T00:44:13;2.07;;;1.27;;
9447;SDS011;4762;48.128;11.376;2023-02-28T00:46:15;2.37;;;1.70;;
9447;SDS011;4762;48.128;11.376;2023-02-28T00:48:17;1.97;;;1.23;;
9447;SDS011;4762;48.128;11.376;2023-02-28T00:50:20;3.63;;;1.50;;
9447;SDS011;4762;48.128;11.376;2023-02-28T00:52:22;2.90;;;1.17;;
9447;SDS011;4762;48.128;11.376;2023-02-28T00:54:24;3.57;;;1.93;;
9447;SDS011;4762;48.128;11.376;2023-02-28T00:56:26;1.83;;;1.03;;
9447;SDS011;4762;48.128;11.376;2023-02-28T00:58:29;3.00;;;1.87;;
9447;SDS011;4762;48.128;11.376;2023-02-28T01:00:31;4.13;;;1.77;;
9447;SDS011;4762;48.128;11.376;2023-02-28T01:02:33;5.83;;;3.23;;
9447;SDS011;4762;48.128;11.376;2023-02-28T01:04:36;6.13;;;1.90;;
9447;SDS011;4762;48.128;11.376;2023-02-28T01:06:38;1.73;;;1.17;;
9447;SDS011;4762;48.128;11.376;2023-02-28T01:08:40;1.87;;;1.10;;
9447;SDS011;4762;48.128;11.376;2023-02-28T01:10:42;1.77;;;1.10;;
9447;SDS011;4762;48.128;11.376;2023-02-28T01:12:45;2.73;;;1.60;;
9447;SDS011;4762;48.128;11.376;2023-02-28T01:14:47;4.50;;;1.67;;
9447;SDS011;4762;48.128;11.376;2023-02-28T01:16:49;1.30;;;0.90;;
9447;SDS011;4762;48.128;11.376;2023-02-28T01:18:52;3.10;;;1.13;;
9447;SDS011;4762;48.128;11.376;2023-02-28T01:20:54;2.50;;;1.43;;
9447;SDS011;4762;48.128;11.376;2023-02-28T01:22:56;2.23;;;1.50;;
9447;SDS011;4762;48.128;11.376;2023-02-28T01:24:58;5.60;;;1.67;;
9447;SDS011;4762;48.128;11.376;2023-02-28T01:27:01;3.03;;;1.83;;
9447;SDS011;4762;48.128;11.376;2023-02-28T01:29:03;6.03;;;1.63;;
9447;SDS011;4762;48.128;11.376;2023-02-28T01:31:05;3.30;;;1.83;;
9447;SDS011;4762;48.128;11.376;2023-02-28T01:33:07;1.20;;;0.70;;
9447;SDS011;4762;48.128;11.376;2023-02-28T01:35:10;3.27;;;2.17;;
9447;SDS011;4762;48.128;11.376;2023-02-28T01:37:12;2.23;;;1.60;;
9447;SDS011;4762;48.128;11.376;2023-02-28T01:39:14;1.50;;;0.93;;
9447;SDS011;4762;48.128;11.376;2023-02-28T01:41:18;6.03;;;2.37;;
9447;SDS011;4762;48.128;11.376;2023-02-28T01:43:22;2.57;;;1.90;;
9447;SDS011;4762;48.128;11.376;2023-02-28T01:45:31;2.70;;;1.40;;
9447;SDS011;4762;48.128;11.376;2023-02-28T01:47:34;1.30;;;0.83;;
9447;SDS011;4762;48.128;11.376;2023-02-28T01:49:38;1.33;;;1.03;;
9447;SDS011;4762;48.128;11.376;2023-02-28T01:51:41;2.13;;;1.40;;
9447;SDS011;4762;48.128;11.376;2023-02-28T01:53:44;1.30;;;0.87;;
9447;SDS011;4762;48.128;11.376;2023-02-28T01:55:47;1.50;;;1.10;;
9447;SDS011;4762;48.128;11.376;2023-02-28T01:57:49;1.87;;;1.37;;
9447;SDS011;4762;48.128;11.376;2023-02-28T01:59:54;3.73;;;1.90;;
9447;SDS011;4762;48.128;11.376;2023-02-28T02:01:56;3.10;;;1.27;;
9447;SDS011;4762;48.128;11.376;2023-02-28T02:03:59;3.10;;;1.30;;
9447;SDS011;4762;48.128;11.376;2023-02-28T02:06:01;1.87;;;1.00;;
9447;SDS011;4762;48.128;11.376;2023-02-28T02:08:05;4.90;;;1.60;;
9447;SDS011;4762;48.128;11.376;2023-02-28T02:10:12;2.70;;;1.47;;
9447;SDS011;4762;48.128;11.376;2023-02-28T02:12:23;5.53;;;1.67;;
9447;SDS011;4762;48.128;11.376;2023-02-28T02:14:40;2.73;;;1.50;;
9447;SDS011;4762;48.128;11.376;2023-02-28T02:19:15;1.60;;;1.20;;
9447;SDS011;4762;48.128;11.376;2023-02-28T02:21:44;2.17;;;1.50;;
9447;SDS011;4762;48.128;11.376;2023-02-28T02:23:50;1.67;;;1.17;;
9447;SDS011;4762;48.128;11.376;2023-02-28T02:25:54;1.23;;;0.80;;
9447;SDS011;4762;48.128;11.376;2023-02-28T02:29:07;1.73;;;1.03;;
9447;SDS011;4762;48.128;11.376;2023-02-28T02:30:27;3.60;;;1.57;;
9447;SDS011;4762;48.128;11.376;2023-02-28T02:32:35;2.10;;;1.20;;
9447;SDS011;4762;48.128;11.376;2023-02-28T02:34:42;3.23;;;1.40;;
9447;SDS011;4762;48.128;11.376;2023-02-28T02:37:15;1.27;;;0.83;;
9447;SDS011;4762;48.128;11.376;2023-02-28T02:39:24;1.90;;;1.17;;
9447;SDS011;4762;48.128;11.376;2023-02-28T02:42:01;1.70;;;1.07;;
9447;SDS011;4762;48.128;11.376;2023-02-28T02:43:49;1.70;;;1.20;;
9447;SDS011;4762;48.128;11.376;2023-02-28T02:45:52;4.97;;;1.30;;
9447;SDS011;4762;48.128;11.376;2023-02-28T02:47:54;1.90;;;1.00;;
9447;SDS011;4762;48.128;11.376;2023-02-28T02:49:57;3.23;;;1.37;;
9447;SDS011;4762;48.128;11.376;2023-02-28T02:52:02;2.20;;;1.40;;
9447;SDS011;4762;48.128;11.376;2023-02-28T02:54:08;3.90;;;1.90;;
9447;SDS011;4762;48.128;11.376;2023-02-28T02:56:10;2.70;;;2.10;;
9447;SDS011;4762;48.128;11.376;2023-02-28T02:58:13;2.13;;;1.30;;
9447;SDS011;4762;48.128;11.376;2023-02-28T03:00:16;1.60;;;0.90;;
9447;SDS011;4762;48.128;11.376;2023-02-28T03:02:18;2.20;;;1.40;;
9447;SDS011;4762;48.128;11.376;2023-02-28T03:04:21;1.90;;;1.50;;
9447;SDS011;4762;48.128;11.376;2023-02-28T03:06:23;3.00;;;1.57;;
9447;SDS011;4762;48.128;11.376;2023-02-28T03:08:26;1.50;;;1.00;;
9447;SDS011;4762;48.128;11.376;2023-02-28T03:10:34;5.30;;;2.20;;
9447;SDS011;4762;48.128;11.376;2023-02-28T03:12:41;3.53;;;1.70;;
9447;SDS011;4762;48.128;11.376;2023-02-28T03:14:56;1.80;;;1.20;;
9447;SDS011;4762;48.128;11.376;2023-02-28T03:17:14;2.90;;;1.37;;
9447;SDS011;4762;48.128;11.376;2023-02-28T03:19:21;2.83;;;1.93;;
9447;SDS011;4762;48.128;11.376;2023-02-28T03:21:34;1.33;;;0.93;;
9447;SDS011;4762;48.128;11.376;2023-02-28T03:23:59;2.80;;;1.93;;
9447;SDS011;4762;48.128;11.376;2023-02-28T03:26:17;5.20;;;2.00;;
9447;SDS011;4762;48.128;11.376;2023-02-28T03:29:28;1.90;;;1.30;;
9447;SDS011;4762;48.128;11.376;2023-02-28T03:30:41;2.13;;;1.40;;
9447;SDS011;4762;48.128;11.376;2023-02-28T03:32:56;4.20;;;1.80;;
9447;SDS011;4762;48.128;11.376;2023-02-28T03:35:05;1.80;;;1.27;;
9447;SDS011;4762;48.128;11.376;2023-02-28T03:37:10;4.50;;;1.50;;
9447;SDS011;4762;48.128;11.376;2023-02-28T03:39:20;2.00;;;1.30;;
9447;SDS011;4762;48.128;11.376;2023-02-28T03:41:36;3.13;;;2.17;;
9447;SDS011;4762;48.128;11.376;2023-02-28T03:43:38;4.30;;;2.40;;
9447;SDS011;4762;48.128;11.376;2023-02-28T03:45:40;1.20;;;0.60;;
9447;SDS011;4762;48.128;11.376;2023-02-28T03:47:45;2.23;;;1.37;;
9447;SDS011;4762;48.128;11.376;2023-02-28T03:49:49;1.67;;;1.30;;
9447;SDS011;4762;48.128;11.376;2023-02-28T03:51:49;2.83;;;1.27;;
9447;SDS011;4762;48.128;11.376;2023-02-28T03:53:53;2.57;;;1.70;;
9447;SDS011;4762;48.128;11.376;2023-02-28T03:55:56;6.30;;;1.83;;
9447;SDS011;4762;48.128;11.376;2023-02-28T03:58:05;6.23;;;2.30;;
9447;SDS011;4762;48.128;11.376;2023-02-28T04:00:12;1.80;;;0.90;;
9447;SDS011;4762;48.128;11.376;2023-02-28T04:02:17;2.90;;;1.53;;
9447;SDS011;4762;48.128;11.376;2023-02-28T04:04:19;2.80;;;2.30;;
9447;SDS011;4762;48.128;11.376;2023-02-28T04:06:22;5.53;;;1.70;;
9447;SDS011;4762;48.128;11.376;2023-02-28T04:08:24;1.70;;;1.03;;
9447;SDS011;4762;48.128;11.376;2023-02-28T04:10:27;2.40;;;1.60;;
9447;SDS011;4762;48.128;11.376;2023-02-28T04:12:33;2.20;;;1.70;;
9447;SDS011;4762;48.128;11.376;2023-02-28T04:14:35;2.93;;;1.80;;
9447;SDS011;4762;48.128;11.376;2023-02-28T04:16:38;6.73;;;1.57;;
9447;SDS011;4762;48.128;11.376;2023-02-28T04:18:40;2.63;;;1.57;;
9447;SDS011;4762;48.128;11.376;2023-02-28T04:20:42;2.07;;;1.40;;
9447;SDS011;4762;48.128;11.376;2023-02-28T04:22:44;2.23;;;1.37;;
9447;SDS011;4762;48.128;11.376;2023-02-28T04:24:47;1.93;;;0.80;;
9447;SDS011;4762;48.128;11.376;2023-02-28T04:26:50;2.13;;;1.80;;
9447;SDS011;4762;48.128;11.376;2023-02-28T04:28:51;2.33;;;1.53;;
9447;SDS011;4762;48.128;11.376;2023-02-28T04:30:54;2.87;;;1.87;;
9447;SDS011;4762;48.128;11.376;2023-02-28T04:32:56;2.90;;;1.83;;
9447;SDS011;4762;48.128;11.376;2023-02-28T04:34:58;1.60;;;1.37;;
9447;SDS011;4762;48.128;11.376;2023-02-28T04:37:00;2.50;;;1.50;;
9447;SDS011;4762;48.128;11.376;2023-02-28T04:39:03;4.20;;;1.60;;
9447;SDS011;4762;48.128;11.376;2023-02-28T04:41:05;3.53;;;1.67;;
9447;SDS011;4762;48.128;11.376;2023-02-28T04:43:07;3.83;;;2.60;;
9447;SDS011;4762;48.128;11.376;2023-02-28T04:45:09;1.80;;;1.43;;
9447;SDS011;4762;48.128;11.376;2023-02-28T04:47:12;2.13;;;1.67;;
9447;SDS011;4762;48.128;11.376;2023-02-28T04:49:14;4.33;;;2.33;;
9447;SDS011;4762;48.128;11.376;2023-02-28T04:51:17;4.07;;;1.97;;
9447;SDS011;4762;48.128;11.376;2023-02-28T04:53:19;4.30;;;2.00;;
9447;SDS011;4762;48.128;11.376;2023-02-28T04:55:21;5.13;;;2.67;;
9447;SDS011;4762;48.128;11.376;2023-02-28T04:57:23;4.97;;;2.80;;
9447;SDS011;4762;48.128;11.376;2023-02-28T04:59:25;8.37;;;1.67;;
9447;SDS011;4762;48.128;11.376;2023-02-28T05:01:29;1.70;;;1.60;;
9447;SDS011;4762;48.128;11.376;2023-02-28T05:03:31;3.27;;;1.83;;
9447;SDS011;4762;48.128;11.376;2023-02-28T05:05:33;3.90;;;2.33;;
9447;SDS011;4762;48.128;11.376;2023-02-28T05:07:35;4.33;;;2.93;;
9447;SDS011;4762;48.128;11.376;2023-02-28T05:09:37;4.83;;;2.87;;
9447;SDS011;4762;48.128;11.376;2023-02-28T05:11:40;2.10;;;1.70;;
9447;SDS011;4762;48.128;11.376;2023-02-28T05:13:42;16.13;;;2.43;;
9447;SDS011;4762;48.128;11.376;2023-02-28T05:15:44;3.47;;;2.57;;
9447;SDS011;4762;48.128;11.376;2023-02-28T05:17:46;4.90;;;2.53;;
9447;SDS011;4762;48.128;11.376;2023-02-28T05:19:49;6.60;;;2.97;;
9447;SDS011;4762;48.128;11.376;2023-02-28T05:21:53;3.93;;;2.63;;
9447;SDS011;4762;48.128;11.376;2023-02-28T05:23:54;9.00;;;2.50;;
9447;SDS011;4762;48.128;11.376;2023-02-28T05:25:56;3.83;;;2.50;;
9447;SDS011;4762;48.128;11.376;2023-02-28T05:27:59;3.87;;;2.73;;
9447;SDS011;4762;48.128;11.376;2023-02-28T05:30:01;3.73;;;2.30;;
9447;SDS011;4762;48.128;11.376;2023-02-28T05:32:03;7.13;;;2.43;;
9447;SDS011;4762;48.128;11.376;2023-02-28T05:34:06;6.73;;;2.93;;
9447;SDS011;4762;48.128;11.376;2023-02-28T05:36:08;6.63;;;3.07;;
9447;SDS011;4762;48.128;11.376;2023-02-28T05:38:10;6.00;;;2.37;;
9447;SDS011;4762;48.128;11.376;2023-02-28T05:40:12;2.90;;;1.93;;
9447;SDS011;4762;48.128;11.376;2023-02-28T05:42:15;4.90;;;2.60;;
9447;SDS011;4762;48.128;11.376;2023-02-28T05:44:17;3.73;;;2.60;;
9447;SDS011;4762;48.128;11.376;2023-02-28T05:46:19;3.70;;;2.30;;
9447;SDS011;4762;48.128;11.376;2023-02-28T05:48:21;4.13;;;3.20;;
9447;SDS011;4762;48.128;11.376;2023-02-28T05:50:24;5.53;;;2.40;;
9447;SDS011;4762;48.128;11.376;2023-02-28T05:52:26;7.80;;;3.80;;
9447;SDS011;4762;48.128;11.376;2023-02-28T05:54:28;5.30;;;3.10;;
9447;SDS011;4762;48.128;11.376;2023-02-28T05:56:30;3.80;;;3.07;;
9447;SDS011;4762;48.128;11.376;2023-02-28T05:58:33;3.33;;;2.23;;
9447;SDS011;4762;48.128;11.376;2023-02-28T06:00:35;5.40;;;3.07;;
9447;SDS011;4762;48.128;11.376;2023-02-28T06:02:38;3.17;;;2.37;;
9447;SDS011;4762;48.128;11.376;2023-02-28T06:04:40;4.77;;;2.93;;
9447;SDS011;4762;48.128;11.376;2023-02-28T06:06:42;6.40;;;3.87;;
9447;SDS011;4762;48.128;11.376;2023-02-28T06:08:44;11.07;;;3.70;;
9447;SDS011;4762;48.128;11.376;2023-02-28T06:10:47;5.70;;;4.00;;
9447;SDS011;4762;48.128;11.376;2023-02-28T06:12:49;7.43;;;3.93;;
9447;SDS011;4762;48.128;11.376;2023-02-28T06:14:51;11.40;;;5.40;;
9447;SDS011;4762;48.128;11.376;2023-02-28T06:16:53;3.60;;;3.27;;
9447;SDS011;4762;48.128;11.376;2023-02-28T06:18:57;6.43;;;3.47;;
9447;SDS011;4762;48.128;11.376;2023-02-28T06:20:59;7.43;;;4.27;;
9447;SDS011;4762;48.128;11.376;2023-02-28T06:23:01;5.90;;;3.93;;
9447;SDS011;4762;48.128;11.376;2023-02-28T06:25:04;6.43;;;3.80;;
9447;SDS011;4762;48.128;11.376;2023-02-28T06:27:06;5.80;;;3.93;;
9447;SDS011;4762;48.128;11.376;2023-02-28T06:29:08;5.93;;;3.70;;
9447;SDS011;4762;48.128;11.376;2023-02-28T06:31:12;5.43;;;4.60;;
9447;SDS011;4762;48.128;11.376;2023-02-28T06:33:13;12.97;;;5.30;;
9447;SDS011;4762;48.128;11.376;2023-02-28T06:35:15;7.30;;;5.40;;
9447;SDS011;4762;48.128;11.376;2023-02-28T06:37:18;8.00;;;5.20;;
9447;SDS011;4762;48.128;11.376;2023-02-28T06:39:20;7.57;;;5.90;;
9447;SDS011;4762;48.128;11.376;2023-02-28T06:41:23;5.20;;;3.70;;
9447;SDS011;4762;48.128;11.376;2023-02-28T06:43:27;9.00;;;5.37;;
9447;SDS011;4762;48.128;11.376;2023-02-28T06:45:27;5.97;;;4.07;;
9447;SDS011;4762;48.128;11.376;2023-02-28T06:47:30;9.17;;;4.83;;
9447;SDS011;4762;48.128;11.376;2023-02-28T06:49:33;7.90;;;4.77;;
9447;SDS011;4762;48.128;11.376;2023-02-28T06:51:35;8.73;;;4.37;;
9447;SDS011;4762;48.128;11.376;2023-02-28T06:53:36;8.17;;;4.77;;
9447;SDS011;4762;48.128;11.376;2023-02-28T06:55:39;8.40;;;4.20;;
9447;SDS011;4762;48.128;11.376;2023-02-28T06:57:41;6.80;;;3.63;;
9447;SDS011;4762;48.128;11.376;2023-02-28T06:59:43;9.30;;;5.00;;
9447;SDS011;4762;48.128;11.376;2023-02-28T07:01:47;7.00;;;4.40;;
9447;SDS011;4762;48.128;11.376;2023-02-28T07:03:50;5.50;;;4.17;;
9447;SDS011;4762;48.128;11.376;2023-02-28T07:05:52;9.40;;;5.20;;
9447;SDS011;4762;48.128;11.376;2023-02-28T07:07:55;26.27;;;4.63;;
9447;SDS011;4762;48.128;11.376;2023-02-28T07:09:58;7.73;;;4.87;;
9447;SDS011;4762;48.128;11.376;2023-02-28T07:12:00;7.50;;;4.60;;
9447;SDS011;4762;48.128;11.376;2023-02-28T07:14:03;13.13;;;5.57;;
9447;SDS011;4762;48.128;11.376;2023-02-28T07:16:06;5.07;;;4.33;;
9447;SDS011;4762;48.128;11.376;2023-02-28T07:18:07;13.97;;;6.00;;
9447;SDS011;4762;48.128;11.376;2023-02-28T07:20:11;8.33;;;4.63;;
9447;SDS011;4762;48.128;11.376;2023-02-28T07:22:14;7.13;;;4.00;;
9447;SDS011;4762;48.128;11.376;2023-02-28T07:24:16;9.30;;;5.47;;
9447;SDS011;4762;48.128;11.376;2023-02-28T07:26:19;10.63;;;5.50;;
9447;SDS011;4762;48.128;11.376;2023-02-28T07:28:21;9.90;;;3.93;;
9447;SDS011;4762;48.128;11.376;2023-02-28T07:30:23;7.77;;;5.60;;
9447;SDS011;4762;48.128;11.376;2023-02-28T07:32:25;7.03;;;4.80;;
9447;SDS011;4762;48.128;11.376;2023-02-28T07:34:28;7.50;;;4.17;;
9447;SDS011;4762;48.128;11.376;2023-02-28T07:36:30;8.40;;;4.53;;
9447;SDS011;4762;48.128;11.376;2023-02-28T07:38:34;6.60;;;4.50;;
9447;SDS011;4762;48.128;11.376;2023-02-28T07:40:36;8.43;;;6.13;;
9447;SDS011;4762;48.128;11.376;2023-02-28T07:42:39;6.60;;;4.87;;
9447;SDS011;4762;48.128;11.376;2023-02-28T07:44:41;10.07;;;3.97;;
9447;SDS011;4762;48.128;11.376;2023-02-28T07:46:44;8.83;;;4.57;;
9447;SDS011;4762;48.128;11.376;2023-02-28T07:48:46;10.40;;;5.57;;
9447;SDS011;4762;48.128;11.376;2023-02-28T07:50:55;6.57;;;5.47;;
9447;SDS011;4762;48.128;11.376;2023-02-28T07:52:58;7.20;;;4.83;;
9447;SDS011;4762;48.128;11.376;2023-02-28T07:55:00;9.57;;;5.80;;
9447;SDS011;4762;48.128;11.376;2023-02-28T07:57:03;7.70;;;4.70;;
9447;SDS011;4762;48.128;11.376;2023-02-28T07:59:05;6.47;;;4.07;;
9447;SDS011;4762;48.128;11.376;2023-02-28T08:01:08;7.40;;;4.80;;
9447;SDS011;4762;48.128;11.376;2023-02-28T08:03:11;6.97;;;4.33;;
9447;SDS011;4762;48.128;11.376;2023-02-28T08:05:13;8.93;;;5.07;;
9447;SDS011;4762;48.128;11.376;2023-02-28T08:07:16;7.87;;;4.77;;
9447;SDS011;4762;48.128;11.376;2023-02-28T08:09:17;6.47;;;3.07;;
9447;SDS011;4762;48.128;11.376;2023-02-28T08:11:20;9.40;;;5.43;;
9447;SDS011;4762;48.128;11.376;2023-02-28T08:13:22;5.13;;;3.87;;
9447;SDS011;4762;48.128;11.376;2023-02-28T08:15:24;4.93;;;3.53;;
9447;SDS011;4762;48.128;11.376;2023-02-28T08:17:26;9.90;;;4.77;;
9447;SDS011;4762;48.128;11.376;2023-02-28T08:19:29;7.30;;;4.70;;
9447;SDS011;4762;48.128;11.376;2023-02-28T08:21:33;9.80;;;5.00;;
9447;SDS011;4762;48.128;11.376;2023-02-28T08:23:35;7.80;;;5.63;;
9447;SDS011;4762;48.128;11.376;2023-02-28T08:25:38;8.23;;;4.73;;
9447;SDS011;4762;48.128;11.376;2023-02-28T08:27:41;8.27;;;5.10;;
9447;SDS011;4762;48.128;11.376;2023-02-28T08:29:43;6.97;;;4.50;;
9447;SDS011;4762;48.128;11.376;2023-02-28T08:31:45;6.93;;;4.97;;
9447;SDS011;4762;48.128;11.376;2023-02-28T08:33:48;9.40;;;5.00;;
9447;SDS011;4762;48.128;11.376;2023-02-28T08:35:52;7.97;;;4.87;;
9447;SDS011;4762;48.128;11.376;2023-02-28T08:37:54;6.30;;;3.60;;
9447;SDS011;4762;48.128;11.376;2023-02-28T08:39:56;10.23;;;6.07;;
9447;SDS011;4762;48.128;11.376;2023-02-28T08:41:58;6.73;;;4.43;;
9447;SDS011;4762;48.128;11.376;2023-02-28T08:44:01;4.80;;;3.63;;
9447;SDS011;4762;48.128;11.376;2023-02-28T08:46:03;11.20;;;4.70;;
9447;SDS011;4762;48.128;11.376;2023-02-28T08:48:05;5.60;;;3.97;;
9447;SDS011;4762;48.128;11.376;2023-02-28T08:50:08;8.67;;;4.53;;
9447;SDS011;4762;48.128;11.376;2023-02-28T08:52:11;31.80;;;5.57;;
9447;SDS011;4762;48.128;11.376;2023-02-28T08:54:13;11.30;;;5.70;;
9447;SDS011;4762;48.128;11.376;2023-02-28T08:56:15;5.00;;;3.80;;
9447;SDS011;4762;48.128;11.376;2023-02-28T08:58:17;6.90;;;4.67;;
9447;SDS011;4762;48.128;11.376;2023-02-28T09:00:20;7.80;;;4.70;;
9447;SDS011;4762;48.128;11.376;2023-02-28T09:02:23;14.43;;;5.37;;
9447;SDS011;4762;48.128;11.376;2023-02-28T09:04:25;10.60;;;5.60;;
9447;SDS011;4762;48.128;11.376;2023-02-28T09:06:28;6.10;;;4.43;;
9447;SDS011;4762;48.128;11.376;2023-02-28T09:08:30;14.30;;;6.27;;
9447;SDS011;4762;48.128;11.376;2023-02-28T09:10:32;11.03;;;5.63;;
9447;SDS011;4762;48.128;11.376;2023-02-28T09:12:34;8.80;;;6.03;;
9447;SDS011;4762;48.128;11.376;2023-02-28T09:14:37;5.73;;;4.83;;
9447;SDS011;4762;48.128;11.376;2023-02-28T09:16:39;11.87;;;6.63;;
9447;SDS011;4762;48.128;11.376;2023-02-28T09:18:41;8.40;;;4.80;;
9447;SDS011;4762;48.128;11.376;2023-02-28T09:20:44;12.20;;;6.10;;
9447;SDS011;4762;48.128;11.376;2023-02-28T09:22:46;7.63;;;5.37;;
9447;SDS011;4762;48.128;11.376;2023-02-28T09:24:48;7.30;;;5.20;;
9447;SDS011;4762;48.128;11.376;2023-02-28T09:26:50;8.70;;;4.90;;
9447;SDS011;4762;48.128;11.376;2023-02-28T09:28:53;5.40;;;4.90;;
9447;SDS011;4762;48.128;11.376;2023-02-28T09:30:55;5.20;;;4.20;;
9447;SDS011;4762;48.128;11.376;2023-02-28T09:32:57;9.73;;;6.13;;
9447;SDS011;4762;48.128;11.376;2023-02-28T09:34:59;10.40;;;5.17;;
9447;SDS011;4762;48.128;11.376;2023-02-28T09:37:01;5.83;;;3.90;;
9447;SDS011;4762;48.128;11.376;2023-02-28T09:39:04;7.90;;;4.97;;
9447;SDS011;4762;48.128;11.376;2023-02-28T09:41:14;7.20;;;4.87;;
9447;SDS011;4762;48.128;11.376;2023-02-28T09:43:15;10.63;;;4.90;;
9447;SDS011;4762;48.128;11.376;2023-02-28T09:45:26;6.60;;;5.03;;
9447;SDS011;4762;48.128;11.376;2023-02-28T09:47:32;6.53;;;4.70;;
9447;SDS011;4762;48.128;11.376;2023-02-28T09:49:37;9.90;;;6.10;;
9447;SDS011;4762;48.128;11.376;2023-02-28T09:51:43;7.97;;;5.00;;
9447;SDS011;4762;48.128;11.376;2023-02-28T09:53:57;8.30;;;5.17;;
9447;SDS011;4762;48.128;11.376;2023-02-28T09:56:02;10.03;;;5.33;;
9447;SDS011;4762;48.128;11.376;2023-02-28T09:58:03;7.97;;;4.90;;
9447;SDS011;4762;48.128;11.376;2023-02-28T10:00:07;14.70;;;5.93;;
9447;SDS011;4762;48.128;11.376;2023-02-28T10:02:23;9.03;;;4.73;;
9447;SDS011;4762;48.128;11.376;2023-02-28T10:04:34;7.93;;;5.23;;
9447;SDS011;4762;48.128;11.376;2023-02-28T10:06:33;9.70;;;5.67;;
9447;SDS011;4762;48.128;11.376;2023-02-28T10:08:38;7.80;;;6.00;;
9447;SDS011;4762;48.128;11.376;2023-02-28T10:10:40;7.10;;;4.47;;
9447;SDS011;4762;48.128;11.376;2023-02-28T10:12:44;8.80;;;4.90;;
9447;SDS011;4762;48.128;11.376;2023-02-28T10:14:46;13.83;;;5.53;;
9447;SDS011;4762;48.128;11.376;2023-02-28T10:16:48;7.77;;;6.33;;
9447;SDS011;4762;48.128;11.376;2023-02-28T10:19:03;6.27;;;4.80;;
9447;SDS011;4762;48.128;11.376;2023-02-28T10:21:21;10.33;;;6.07;;
9447;SDS011;4762;48.128;11.376;2023-02-28T10:23:24;6.13;;;4.10;;
9447;SDS011;4762;48.128;11.376;2023-02-28T10:25:27;6.40;;;4.60;;
9447;SDS011;4762;48.128;11.376;2023-02-28T10:27:30;8.90;;;5.23;;
9447;SDS011;4762;48.128;11.376;2023-02-28T10:29:31;6.23;;;4.20;;
9447;SDS011;4762;48.128;11.376;2023-02-28T10:31:33;6.90;;;5.17;;
9447;SDS011;4762;48.128;11.376;2023-02-28T10:33:35;5.20;;;4.60;;
9447;SDS011;4762;48.128;11.376;2023-02-28T10:35:38;7.50;;;5.43;;
9447;SDS011;4762;48.128;11.376;2023-02-28T10:37:41;9.47;;;5.20;;
9447;SDS011;4762;48.128;11.376;2023-02-28T10:39:44;10.00;;;5.43;;
9447;SDS011;4762;48.128;11.376;2023-02-28T10:41:45;6.07;;;4.53;;
9447;SDS011;4762;48.128;11.376;2023-02-28T10:43:48;5.60;;;4.20;;
9447;SDS011;4762;48.128;11.376;2023-02-28T10:50:02;9.00;;;5.07;;
9447;SDS011;4762;48.128;11.376;2023-02-28T10:52:04;11.60;;;5.23;;
9447;SDS011;4762;48.128;11.376;2023-02-28T10:54:38;8.30;;;4.77;;
9447;SDS011;4762;48.128;11.376;2023-02-28T10:56:24;7.67;;;5.20;;
9447;SDS011;4762;48.128;11.376;2023-02-28T10:58:28;7.07;;;5.13;;
9447;SDS011;4762;48.128;11.376;2023-02-28T11:00:33;8.27;;;4.87;;
9447;SDS011;4762;48.128;11.376;2023-02-28T11:02:35;7.97;;;5.13;;
9447;SDS011;4762;48.128;11.376;2023-02-28T11:04:37;8.33;;;4.90;;
9447;SDS011;4762;48.128;11.376;2023-02-28T11:06:39;6.60;;;4.60;;
9447;SDS011;4762;48.128;11.376;2023-02-28T11:08:45;5.57;;;5.03;;
9447;SDS011;4762;48.128;11.376;2023-02-28T11:10:48;10.30;;;6.00;;
9447;SDS011;4762;48.128;11.376;2023-02-28T11:12:49;7.60;;;3.90;;
9447;SDS011;4762;48.128;11.376;2023-02-28T11:14:57;7.83;;;5.63;;
9447;SDS011;4762;48.128;11.376;2023-02-28T11:17:03;8.83;;;5.23;;
9447;SDS011;4762;48.128;11.376;2023-02-28T11:19:04;9.40;;;4.67;;
9447;SDS011;4762;48.128;11.376;2023-02-28T11:21:05;8.43;;;5.57;;
9447;SDS011;4762;48.128;11.376;2023-02-28T11:23:10;8.57;;;5.00;;
9447;SDS011;4762;48.128;11.376;2023-02-28T11:25:17;7.83;;;5.30;;
9447;SDS011;4762;48.128;11.376;2023-02-28T11:27:25;14.67;;;6.33;;
9447;SDS011;4762;48.128;11.376;2023-02-28T11:29:28;9.73;;;5.20;;
9447;SDS011;4762;48.128;11.376;2023-02-28T11:31:32;8.47;;;4.47;;
9447;SDS011;4762;48.128;11.376;2023-02-28T11:36:03;7.67;;;5.13;;
9447;SDS011;4762;48.128;11.376;2023-02-28T11:38:04;4.97;;;4.33;;
9447;SDS011;4762;48.128;11.376;2023-02-28T11:40:12;8.67;;;5.20;;
9447;SDS011;4762;48.128;11.376;2023-02-28T11:42:15;10.50;;;4.70;;
9447;SDS011;4762;48.128;11.376;2023-02-28T11:44:27;8.37;;;5.17;;
9447;SDS011;4762;48.128;11.376;2023-02-28T11:46:43;7.87;;;4.57;;
9447;SDS011;4762;48.128;11.376;2023-02-28T11:48:53;5.43;;;4.27;;
9447;SDS011;4762;48.128;11.376;2023-02-28T11:53:14;18.53;;;5.10;;
9447;SDS011;4762;48.128;11.376;2023-02-28T11:55:19;8.40;;;4.53;;
9447;SDS011;4762;48.128;11.376;2023-02-28T11:57:31;4.17;;;2.97;;
9447;SDS011;4762;48.128;11.376;2023-02-28T11:59:47;8.50;;;4.37;;
9447;SDS011;4762;48.128;11.376;2023-02-28T12:04:13;7.57;;;4.97;;
9447;SDS011;4762;48.128;11.376;2023-02-28T12:06:17;7.13;;;4.10;;
9447;SDS011;4762;48.128;11.376;2023-02-28T12:08:26;7.10;;;4.00;;
9447;SDS011;4762;48.128;11.376;2023-02-28T12:10:26;6.37;;;4.30;;
9447;SDS011;4762;48.128;11.376;2023-02-28T12:12:37;11.90;;;4.87;;
9447;SDS011;4762;48.128;11.376;2023-02-28T12:14:42;7.13;;;4.63;;
9447;SDS011;4762;48.128;11.376;2023-02-28T12:17:00;12.67;;;6.00;;
9447;SDS011;4762;48.128;11.376;2023-02-28T12:21:27;8.20;;;4.00;;
9447;SDS011;4762;48.128;11.376;2023-02-28T12:23:39;7.20;;;4.70;;
9447;SDS011;4762;48.128;11.376;2023-02-28T12:25:43;12.00;;;5.40;;
9447;SDS011;4762;48.128;11.376;2023-02-28T12:27:46;13.00;;;4.60;;
9447;SDS011;4762;48.128;11.376;2023-02-28T12:29:49;12.80;;;5.07;;
9447;SDS011;4762;48.128;11.376;2023-02-28T12:31:54;6.10;;;3.90;;
9447;SDS011;4762;48.128;11.376;2023-02-28T12:33:57;6.20;;;4.43;;
9447;SDS011;4762;48.128;11.376;2023-02-28T12:35:59;11.93;;;4.83;;
9447;SDS011;4762;48.128;11.376;2023-02-28T12:38:03;7.13;;;5.27;;
9447;SDS011;4762;48.128;11.376;2023-02-28T12:40:05;11.33;;;4.30;;
9447;SDS011;4762;48.128;11.376;2023-02-28T12:42:10;8.27;;;4.33;;
9447;SDS011;4762;48.128;11.376;2023-02-28T12:44:13;6.17;;;3.80;;
9447;SDS011;4762;48.128;11.376;2023-02-28T12:46:19;11.63;;;4.57;;
9447;SDS011;4762;48.128;11.376;2023-02-28T12:50:44;6.40;;;4.50;;
9447;SDS011;4762;48.128;11.376;2023-02-28T12:54:59;7.03;;;4.27;;
9447;SDS011;4762;48.128;11.376;2023-02-28T12:57:02;7.13;;;4.37;;
9447;SDS011;4762;48.128;11.376;2023-02-28T13:03:43;10.53;;;4.33;;